Time;durP1;ratioP1;P1;durP2;ratioP2;P2;SDS_P1;SDS_P2;PMS_P1;PMS_P2;Temp;Humidity;BMP_temperature;BMP_pressure;BME280_temperature;BME280_humidity;BME280_pressure;Samples;Min_cycle;Max_cycle;Signal;HPM_P1;HPM_P2
2022/11/09 00:02:26;;;;;;;34.75;26.27;;;12.30;99.90;;;;;;5056752;28;20032;-76
2022/11/09 00:04:53;;;;;;;23.45;21.13;;;12.30;99.90;;;;;;5045575;28;20045;-79
2022/11/09 00:07:20;;;;;;;21.17;19.42;;;12.30;99.90;;;;;;5045882;28;20061;-76
2022/11/09 00:09:46;;;;;;;26.40;21.83;;;12.30;99.90;;;;;;5041994;28;20289;-79
2022/11/09 00:12:13;;;;;;;26.65;23.77;;;12.30;99.90;;;;;;5042187;28;20052;-78
2022/11/09 00:14:40;;;;;;;31.67;26.35;;;12.30;99.90;;;;;;5063669;28;20053;-78
2022/11/09 00:17:07;;;;;;;32.90;27.83;;;12.30;99.90;;;;;;5060252;28;20045;-78
2022/11/09 00:19:33;;;;;;;28.85;25.67;;;12.30;99.90;;;;;;5045755;28;20040;-79
2022/11/09 00:22:00;;;;;;;23.50;21.38;;;12.30;99.90;;;;;;5049162;28;20080;-77
2022/11/09 00:24:27;;;;;;;21.83;20.23;;;12.30;99.90;;;;;;5049009;28;20043;-77
2022/11/09 00:26:53;;;;;;;23.20;21.27;;;12.30;99.90;;;;;;5050417;28;20040;-76
2022/11/09 00:29:20;;;;;;;21.95;20.30;;;12.20;99.90;;;;;;5044334;28;20033;-78
2022/11/09 00:31:48;;;;;;;23.05;21.17;;;12.20;99.90;;;;;;5050710;28;20068;-79
2022/11/09 00:34:15;;;;;;;22.00;20.48;;;12.20;99.90;;;;;;5057114;28;20564;-77
2022/11/09 00:36:41;;;;;;;24.35;22.20;;;12.20;99.90;;;;;;5052653;28;20037;-79
2022/11/09 00:39:08;;;;;;;24.40;22.25;;;12.10;99.90;;;;;;5043264;28;20825;-77
2022/11/09 00:41:35;;;;;;;22.55;20.75;;;12.10;99.90;;;;;;5045643;28;20063;-79
2022/11/09 00:44:02;;;;;;;21.55;20.02;;;12.10;99.90;;;;;;5041639;28;20044;-77
2022/11/09 00:46:29;;;;;;;23.02;21.52;;;12.10;99.90;;;;;;5063746;28;20148;-78
2022/11/09 00:48:56;;;;;;;22.60;20.90;;;12.10;99.90;;;;;;5044851;28;20055;-77
2022/11/09 00:51:22;;;;;;;23.83;22.02;;;12.10;99.90;;;;;;5027733;28;20041;-77
2022/11/09 00:53:53;;;;;;;22.98;21.15;;;12.10;99.90;;;;;;5061230;28;20470;-80
2022/11/09 00:56:20;;;;;;;22.35;20.63;;;12.10;99.90;;;;;;5043215;28;20775;-78
2022/11/09 00:58:50;;;;;;;21.52;19.83;;;12.00;99.90;;;;;;5061908;28;20044;-78
2022/11/09 01:01:17;;;;;;;21.48;20.17;;;12.00;99.90;;;;;;5058777;28;20136;-79
2022/11/09 01:03:47;;;;;;;21.40;19.90;;;12.00;99.90;;;;;;5046162;28;20710;-78
2022/11/09 01:06:17;;;;;;;21.27;19.80;;;12.00;99.90;;;;;;5042279;28;20047;-78
2022/11/09 01:08:44;;;;;;;20.95;19.52;;;11.90;99.90;;;;;;5051997;28;20040;-78
2022/11/09 01:11:14;;;;;;;21.55;19.95;;;11.90;99.90;;;;;;5041501;28;20037;-78
2022/11/09 01:13:41;;;;;;;20.80;19.23;;;11.90;99.90;;;;;;5045831;28;20070;-79
2022/11/09 01:16:10;;;;;;;21.58;20.17;;;11.90;99.90;;;;;;5058417;28;20697;-78
2022/11/09 01:18:38;;;;;;;20.90;19.60;;;11.90;99.90;;;;;;5042107;28;20045;-77
2022/11/09 01:21:06;;;;;;;22.05;20.63;;;11.90;99.90;;;;;;5040677;28;20051;-79
2022/11/09 01:23:33;;;;;;;22.45;21.05;;;11.90;99.90;;;;;;5053010;28;20091;-78
2022/11/09 01:26:03;;;;;;;21.88;20.30;;;11.90;99.90;;;;;;5041798;28;20121;-78
2022/11/09 01:28:30;;;;;;;21.98;20.45;;;12.00;99.90;;;;;;5043941;28;20054;-78
2022/11/09 01:31:03;;;;;;;20.95;19.45;;;12.00;99.90;;;;;;5038240;28;20048;-77
2022/11/09 01:33:31;;;;;;;21.92;20.27;;;12.00;99.90;;;;;;5039879;28;20041;-79
2022/11/09 01:36:06;;;;;;;21.13;19.63;;;12.00;99.90;;;;;;5057395;28;20044;-78
2022/11/09 01:38:32;;;;;;;21.63;20.20;;;12.00;99.90;;;;;;5038832;28;20045;-77
2022/11/09 01:40:59;;;;;;;21.10;19.73;;;12.10;99.90;;;;;;5024271;28;20745;-78
2022/11/09 01:43:26;;;;;;;20.48;19.08;;;12.10;99.90;;;;;;5038057;28;20414;-77
2022/11/09 01:46:18;;;;;;;20.60;19.30;;;12.10;99.90;;;;;;5043078;28;20075;-78
2022/11/09 01:48:54;;;;;;;20.73;19.25;;;12.20;99.90;;;;;;5036185;28;20049;-77
2022/11/09 01:51:31;;;;;;;20.80;19.50;;;12.20;99.90;;;;;;5042523;28;20136;-78
2022/11/09 01:54:06;;;;;;;20.55;19.17;;;12.20;99.90;;;;;;5041914;28;20091;-78
2022/11/09 01:56:33;;;;;;;20.02;18.92;;;12.20;99.90;;;;;;5027576;28;20494;-77
2022/11/09 01:59:04;;;;;;;20.95;19.55;;;12.30;99.90;;;;;;5023510;28;20050;-77
2022/11/09 02:01:32;;;;;;;20.60;19.45;;;12.30;99.90;;;;;;5032368;28;20029;-77
2022/11/09 02:04:07;;;;;;;20.88;19.50;;;12.30;99.90;;;;;;5022649;28;20243;-78
2022/11/09 02:06:34;;;;;;;;;;;12.30;99.90;;;;;;5038866;28;20136;-78
2022/11/09 02:09:13;;;;;;;21.58;19.98;;;12.30;99.90;;;;;;5041196;28;19927;-79
2022/11/09 02:11:40;;;;;;;20.38;19.02;;;12.30;99.90;;;;;;5044213;28;20066;-78
2022/11/09 02:14:07;;;;;;;19.15;17.95;;;12.30;99.90;;;;;;5058215;28;20036;-76
2022/11/09 02:16:34;;;;;;;20.50;19.30;;;12.30;99.90;;;;;;5041252;28;20575;-78
2022/11/09 02:19:00;;;;;;;20.08;18.90;;;12.30;99.90;;;;;;5056370;28;20175;-77
2022/11/09 02:21:30;;;;;;;21.23;19.40;;;12.30;99.90;;;;;;5037413;28;20040;-76
2022/11/09 02:23:58;;;;;;;19.75;18.58;;;12.40;99.90;;;;;;5038641;28;20044;-77
2022/11/09 02:26:42;;;;;;;20.15;18.80;;;12.30;99.90;;;;;;5022178;28;20299;-79
2022/11/09 02:29:13;;;;;;;19.75;18.65;;;12.40;99.90;;;;;;5040646;28;20041;-78
2022/11/09 02:31:45;;;;;;;20.60;19.08;;;12.40;99.90;;;;;;5044046;28;20132;-78
2022/11/09 02:34:16;;;;;;;20.08;18.98;;;12.40;99.90;;;;;;5040472;28;20135;-78
2022/11/09 02:36:43;;;;;;;20.55;19.35;;;12.40;99.90;;;;;;5048930;28;20046;-79
2022/11/09 02:39:18;;;;;;;20.13;18.92;;;12.40;99.90;;;;;;5042800;28;20045;-78
2022/11/09 02:42:01;;;;;;;19.83;18.77;;;12.50;99.90;;;;;;5024343;28;20040;-77
2022/11/09 02:44:38;;;;;;;20.00;18.75;;;12.50;99.90;;;;;;5041106;28;20320;-79
2022/11/09 02:47:06;;;;;;;19.48;18.48;;;12.50;99.90;;;;;;5039294;28;20064;-79
2022/11/09 02:49:33;;;;;;;20.88;19.45;;;12.50;99.90;;;;;;5034778;28;20076;-78
2022/11/09 02:52:00;;;;;;;20.75;19.33;;;12.40;99.90;;;;;;5037574;28;20512;-78
2022/11/09 02:54:27;;;;;;;19.85;18.67;;;12.40;99.90;;;;;;5039282;28;20117;-76
2022/11/09 02:56:56;;;;;;;20.75;19.20;;;12.40;99.90;;;;;;5039255;28;20060;-77
2022/11/09 02:59:24;;;;;;;20.30;18.88;;;12.40;99.90;;;;;;5041557;28;20052;-77
2022/11/09 03:01:51;;;;;;;19.65;18.45;;;12.30;99.90;;;;;;5042634;28;20395;-77
2022/11/09 03:04:18;;;;;;;18.75;17.85;;;12.30;99.90;;;;;;5040387;28;20048;-76
2022/11/09 03:06:44;;;;;;;19.25;18.08;;;12.30;99.90;;;;;;5043901;28;20053;-78
2022/11/09 03:09:14;;;;;;;19.58;18.38;;;12.30;99.90;;;;;;5040694;28;20092;-78
2022/11/09 03:11:42;;;;;;;19.58;18.40;;;12.30;99.90;;;;;;5052393;28;20132;-78
2022/11/09 03:14:11;;;;;;;19.33;18.05;;;12.30;99.90;;;;;;5034943;28;20073;-77
2022/11/09 03:16:42;;;;;;;19.52;18.33;;;12.30;99.90;;;;;;5040363;28;20653;-78
2022/11/09 03:19:16;;;;;;;19.95;18.70;;;12.30;99.90;;;;;;5063395;28;20215;-77
2022/11/09 03:21:44;;;;;;;19.58;18.38;;;12.40;99.90;;;;;;5044596;28;20151;-79
2022/11/09 03:24:10;;;;;;;19.50;18.15;;;12.40;99.90;;;;;;5061820;28;20058;-78
2022/11/09 03:26:38;;;;;;;19.10;17.92;;;12.40;99.90;;;;;;5048060;28;20040;-79
2022/11/09 03:29:05;;;;;;;18.73;17.52;;;12.40;99.90;;;;;;5043918;28;20611;-77
2022/11/09 03:31:32;;;;;;;19.20;18.20;;;12.40;99.90;;;;;;5039403;28;20146;-79
2022/11/09 03:34:03;;;;;;;19.02;17.90;;;12.40;99.90;;;;;;5050807;28;20040;-79
2022/11/09 03:36:30;;;;;;;19.23;18.02;;;12.40;99.90;;;;;;5067844;28;20037;-77
2022/11/09 03:38:56;;;;;;;18.80;17.80;;;12.30;99.90;;;;;;5052176;28;20464;-79
2022/11/09 03:41:23;;;;;;;18.45;17.45;;;12.30;99.90;;;;;;5048783;28;20366;-76
2022/11/09 03:43:50;;;;;;;19.13;17.63;;;12.40;99.90;;;;;;5047707;28;20135;-77
2022/11/09 03:46:17;;;;;;;18.05;17.10;;;12.30;99.90;;;;;;5043805;28;20045;-79
2022/11/09 03:48:43;;;;;;;18.60;17.45;;;12.30;99.90;;;;;;5051576;28;20515;-78
2022/11/09 03:51:10;;;;;;;18.27;17.27;;;12.30;99.90;;;;;;5043522;28;20040;-76
2022/11/09 03:53:36;;;;;;;17.50;16.60;;;12.30;99.90;;;;;;5046355;28;20050;-78
2022/11/09 03:56:03;;;;;;;18.10;16.88;;;12.30;99.90;;;;;;5040188;28;20030;-79
2022/11/09 03:58:30;;;;;;;17.38;16.38;;;12.30;99.90;;;;;;5064127;28;20139;-79
2022/11/09 04:00:57;;;;;;;18.17;16.95;;;12.30;99.90;;;;;;5026167;28;20269;-78
2022/11/09 04:03:24;;;;;;;18.10;17.08;;;12.30;99.90;;;;;;5028195;28;20040;-79
2022/11/09 04:05:50;;;;;;;18.13;17.13;;;12.20;99.90;;;;;;5045510;28;20047;-78
2022/11/09 04:08:17;;;;;;;18.48;17.38;;;12.20;99.90;;;;;;5043690;28;20059;-79
2022/11/09 04:10:44;;;;;;;17.27;16.38;;;12.30;99.90;;;;;;5044947;28;20048;-78
2022/11/09 04:13:11;;;;;;;18.00;16.80;;;12.20;99.90;;;;;;5044424;28;20079;-79
2022/11/09 04:15:37;;;;;;;18.10;17.10;;;12.20;99.90;;;;;;5046517;28;20037;-79
2022/11/09 04:18:04;;;;;;;18.73;17.42;;;12.10;99.90;;;;;;5061080;28;20051;-78
2022/11/09 04:20:31;;;;;;;17.70;16.60;;;12.10;99.90;;;;;;5049718;28;20046;-78
2022/11/09 04:23:01;;;;;;;18.80;17.50;;;12.10;99.90;;;;;;5048634;28;20032;-76
2022/11/09 04:25:32;;;;;;;18.17;17.05;;;12.00;99.90;;;;;;5026573;28;20262;-80
2022/11/09 04:28:00;;;;;;;18.27;16.98;;;12.00;99.90;;;;;;5038724;28;20041;-79
2022/11/09 04:30:28;;;;;;;17.08;16.08;;;12.00;99.90;;;;;;5043254;28;20039;-79
2022/11/09 04:32:56;;;;;;;17.42;16.52;;;12.00;99.90;;;;;;5041591;28;20044;-79
2022/11/09 04:35:23;;;;;;;18.30;17.00;;;12.00;99.90;;;;;;5063757;28;20048;-80
2022/11/09 04:37:55;;;;;;;17.73;16.77;;;12.00;99.90;;;;;;5032158;28;20056;-79
2022/11/09 04:40:23;;;;;;;17.60;16.30;;;12.00;99.90;;;;;;5046694;28;20044;-79
2022/11/09 04:42:50;;;;;;;17.30;16.30;;;12.00;99.90;;;;;;5051390;28;20040;-79
2022/11/09 04:45:17;;;;;;;18.23;16.70;;;12.00;99.90;;;;;;5045440;28;20082;-79
2022/11/09 04:47:43;;;;;;;16.95;15.93;;;11.90;99.90;;;;;;5041664;28;20140;-79
2022/11/09 04:50:10;;;;;;;16.95;15.85;;;11.90;99.90;;;;;;5036961;28;20265;-78
2022/11/09 04:52:37;;;;;;;16.83;15.40;;;11.90;99.90;;;;;;5047888;28;20110;-80
2022/11/09 04:55:04;;;;;;;17.63;16.63;;;11.90;99.90;;;;;;5046231;28;20060;-80
2022/11/09 04:57:31;;;;;;;15.93;15.13;;;11.90;99.90;;;;;;5064993;28;20047;-79
2022/11/09 04:59:57;;;;;;;17.17;15.65;;;11.80;99.90;;;;;;5056203;28;20048;-76
2022/11/09 05:02:24;;;;;;;17.00;15.80;;;11.80;99.90;;;;;;5043165;28;20064;-78
2022/11/09 05:04:51;;;;;;;16.25;15.15;;;11.80;99.90;;;;;;5046894;28;20059;-77
2022/11/09 05:07:17;;;;;;;15.88;14.85;;;11.80;99.90;;;;;;5050860;28;20044;-79
2022/11/09 05:09:44;;;;;;;15.85;14.85;;;11.80;99.90;;;;;;5040788;28;20048;-79
2022/11/09 05:12:11;;;;;;;17.13;15.52;;;11.80;99.90;;;;;;5040832;28;20047;-79
2022/11/09 05:14:38;;;;;;;16.27;15.18;;;11.80;99.90;;;;;;5046034;28;20036;-79
2022/11/09 05:17:05;;;;;;;16.15;15.05;;;11.80;99.90;;;;;;5042962;28;20036;-78
2022/11/09 05:19:32;;;;;;;16.45;15.05;;;11.80;99.90;;;;;;5056850;28;20036;-79
2022/11/09 05:23:57;;;;;;;15.88;14.88;;;11.80;99.90;;;;;;5044108;28;20119;-79
2022/11/09 05:24:45;;;;;;;15.63;14.30;;;11.80;99.90;;;;;;5045916;28;20033;-80
2022/11/09 05:27:12;;;;;;;16.67;15.40;;;11.70;99.90;;;;;;5060818;28;20413;-79
2022/11/09 05:29:38;;;;;;;16.13;14.80;;;11.70;99.90;;;;;;5043447;28;20037;-78
2022/11/09 05:32:05;;;;;;;15.38;14.20;;;11.70;99.90;;;;;;5040869;28;20398;-78
2022/11/09 05:34:32;;;;;;;15.18;14.18;;;11.70;99.90;;;;;;5057467;28;20037;-79
2022/11/09 05:36:58;;;;;;;15.25;14.15;;;11.70;99.90;;;;;;5042431;28;20579;-78
2022/11/09 05:39:29;;;;;;;15.35;14.27;;;11.70;99.90;;;;;;5045089;28;20036;-79
2022/11/09 05:41:56;;;;;;;16.13;14.73;;;11.70;99.90;;;;;;5041681;28;20074;-79
2022/11/09 05:44:22;;;;;;;16.88;15.75;;;11.70;99.90;;;;;;5042905;28;20055;-78
2022/11/09 05:46:49;;;;;;;15.98;14.60;;;11.70;99.90;;;;;;5044474;28;20041;-79
2022/11/09 05:49:16;;;;;;;14.85;13.80;;;11.70;99.90;;;;;;5041235;28;20048;-80
2022/11/09 05:51:42;;;;;;;15.75;14.65;;;11.70;99.90;;;;;;5044091;28;20048;-80
2022/11/09 05:54:09;;;;;;;15.45;14.32;;;11.70;99.90;;;;;;5041322;28;20645;-79
2022/11/09 05:56:36;;;;;;;15.27;14.10;;;11.70;99.90;;;;;;5061802;28;20045;-79
2022/11/09 05:59:02;;;;;;;15.18;14.00;;;11.70;99.90;;;;;;5059411;28;20041;-78
2022/11/09 06:01:29;;;;;;;15.48;14.27;;;11.80;99.90;;;;;;5042502;28;20531;-79
2022/11/09 06:03:56;;;;;;;16.13;14.65;;;11.80;99.90;;;;;;5044059;28;20044;-78
2022/11/09 06:06:22;;;;;;;15.85;14.68;;;11.80;99.90;;;;;;5058834;28;20048;-80
2022/11/09 06:08:49;;;;;;;16.27;14.82;;;11.80;99.90;;;;;;5062784;28;20051;-78
2022/11/09 06:11:16;;;;;;;17.17;15.77;;;11.70;99.90;;;;;;5033266;28;21066;-78
2022/11/09 06:13:51;;;;;;;16.77;15.27;;;11.70;99.90;;;;;;5013644;28;20044;-78
2022/11/09 06:16:17;;;;;;;16.58;15.18;;;11.70;99.90;;;;;;5038768;28;20233;-77
2022/11/09 06:18:44;;;;;;;16.20;14.90;;;11.70;99.90;;;;;;5041911;28;20040;-78
2022/11/09 06:21:11;;;;;;;16.35;15.15;;;11.70;99.90;;;;;;5036808;28;20050;-78
2022/11/09 06:23:38;;;;;;;16.80;15.07;;;11.70;99.90;;;;;;5034440;28;20051;-78
2022/11/09 06:26:08;;;;;;;16.40;15.00;;;11.60;99.90;;;;;;5038991;28;20036;-78
2022/11/09 06:28:40;;;;;;;17.05;15.65;;;11.60;99.90;;;;;;5043261;28;20040;-80
2022/11/09 06:31:11;;;;;;;17.70;15.98;;;11.60;99.90;;;;;;5034690;28;20037;-77
2022/11/09 06:33:38;;;;;;;16.20;14.93;;;11.60;99.90;;;;;;5037054;28;20092;-77
2022/11/09 06:36:05;;;;;;;16.25;15.15;;;11.60;99.90;;;;;;5036537;28;20037;-79
2022/11/09 06:38:32;;;;;;;16.63;15.20;;;11.60;99.90;;;;;;5049045;28;20131;-78
2022/11/09 06:40:59;;;;;;;16.23;14.95;;;11.60;99.90;;;;;;5028342;28;20040;-78
2022/11/09 06:43:27;;;;;;;17.50;16.13;;;11.70;99.90;;;;;;5040427;28;20044;-78
2022/11/09 06:45:54;;;;;;;17.23;15.93;;;11.70;99.90;;;;;;5041292;28;20071;-78
2022/11/09 06:48:21;;;;;;;17.48;16.15;;;11.80;99.90;;;;;;5033409;28;20041;-78
2022/11/09 06:50:48;;;;;;;17.30;16.10;;;11.80;99.90;;;;;;5024366;28;20040;-78
2022/11/09 06:53:16;;;;;;;18.38;16.85;;;11.80;99.90;;;;;;5055695;28;20134;-78
2022/11/09 06:55:42;;;;;;;18.42;16.88;;;11.80;99.90;;;;;;5045540;28;20041;-79
2022/11/09 06:58:15;;;;;;;17.30;16.10;;;11.80;99.90;;;;;;5037107;28;20642;-79
2022/11/09 07:00:43;;;;;;;18.02;16.42;;;11.80;99.90;;;;;;5057564;28;20717;-78
2022/11/09 07:03:14;;;;;;;18.02;16.27;;;11.80;99.90;;;;;;5041427;28;20076;-78
2022/11/09 07:05:41;;;;;;;18.10;16.70;;;11.80;99.90;;;;;;5036343;28;20048;-78
2022/11/09 07:08:08;;;;;;;16.80;15.68;;;11.80;99.90;;;;;;5040001;28;20060;-77
2022/11/09 07:10:35;;;;;;;16.70;15.60;;;11.80;99.90;;;;;;5040813;28;20054;-77
2022/11/09 07:13:02;;;;;;;17.45;16.23;;;11.90;99.90;;;;;;5044646;28;20052;-78
2022/11/09 07:15:29;;;;;;;17.85;16.42;;;11.90;99.90;;;;;;5046183;28;20064;-77
2022/11/09 07:17:59;;;;;;;17.75;16.65;;;11.90;99.90;;;;;;5059643;28;20413;-78
2022/11/09 07:20:27;;;;;;;17.92;16.52;;;12.00;99.90;;;;;;5039921;28;20029;-78
2022/11/09 07:22:54;;;;;;;19.73;18.13;;;12.00;99.90;;;;;;5059904;28;20032;-78
2022/11/09 07:25:21;;;;;;;17.42;16.13;;;12.00;99.90;;;;;;5046542;28;20079;-77
2022/11/09 07:27:48;;;;;;;17.55;16.25;;;12.00;99.90;;;;;;5052784;28;20230;-80
2022/11/09 07:30:15;;;;;;;17.35;16.05;;;12.10;99.90;;;;;;5039726;28;20091;-77
2022/11/09 07:32:42;;;;;;;17.65;16.52;;;12.10;99.90;;;;;;5038298;28;20053;-78
2022/11/09 07:35:29;;;;;;;17.17;15.88;;;12.10;99.90;;;;;;5042795;28;20036;-78
2022/11/09 07:38:00;;;;;;;16.65;15.55;;;12.10;99.90;;;;;;5043137;28;20039;-77
2022/11/09 07:40:27;;;;;;;18.20;16.75;;;12.20;99.90;;;;;;5039885;28;20080;-78
2022/11/09 07:42:58;;;;;;;15.85;14.75;;;12.20;99.90;;;;;;5040727;28;20048;-78
2022/11/09 07:45:24;;;;;;;16.80;15.77;;;12.30;99.90;;;;;;5038893;28;20048;-79
2022/11/09 07:47:59;;;;;;;15.75;14.57;;;12.30;99.90;;;;;;5044128;28;20720;-78
2022/11/09 07:50:27;;;;;;;15.30;14.20;;;12.30;99.90;;;;;;5023721;28;20048;-78
2022/11/09 07:52:55;;;;;;;15.52;14.43;;;12.30;99.90;;;;;;5060371;28;20068;-77
2022/11/09 07:55:22;;;;;;;15.88;14.65;;;12.30;99.90;;;;;;5037997;28;20127;-77
2022/11/09 07:57:57;;;;;;;15.63;14.35;;;12.30;99.90;;;;;;5058584;28;20555;-79
2022/11/09 08:00:25;;;;;;;;;;;12.30;99.90;;;;;;5042021;28;20040;-80
2022/11/09 08:02:52;;;;;;;16.30;14.68;;;12.20;99.90;;;;;;5060637;28;19947;-81
2022/11/09 08:05:18;;;;;;;14.93;13.63;;;12.10;99.90;;;;;;5042644;28;20060;-79
2022/11/09 08:07:47;;;;;;;17.85;16.25;;;12.10;99.90;;;;;;5045234;28;20542;-80
2022/11/09 08:10:21;;;;;;;17.83;16.40;;;12.10;99.90;;;;;;5038983;28;20080;-81
2022/11/09 08:13:17;;;;;;;18.02;16.63;;;12.10;99.90;;;;;;5048871;28;20063;-80
2022/11/09 08:15:46;;;;;;;18.83;17.10;;;12.10;99.90;;;;;;5039567;28;20671;-80
2022/11/09 08:18:16;;;;;;;35.95;26.30;;;12.20;99.90;;;;;;5059578;28;20047;-80
2022/11/09 08:20:43;;;;;;;76.65;61.58;;;12.30;99.90;;;;;;5036862;28;20114;-81
2022/11/09 08:23:15;;;;;;;59.03;44.78;;;12.20;99.90;;;;;;5060415;28;20029;-81
2022/11/09 08:25:42;;;;;;;22.27;20.38;;;12.30;99.90;;;;;;5044517;28;20132;-81
2022/11/09 08:28:08;;;;;;;17.65;16.30;;;12.30;99.90;;;;;;5042917;28;20482;-80
2022/11/09 08:30:42;;;;;;;25.30;15.05;;;12.20;99.90;;;;;;5044191;28;20044;-81
2022/11/09 08:33:09;;;;;;;14.57;11.93;;;12.10;99.90;;;;;;5042022;28;20135;-81
2022/11/09 08:35:36;;;;;;;13.23;9.57;;;11.90;99.90;;;;;;5041691;28;20063;-81
2022/11/09 08:38:04;;;;;;;12.20;9.20;;;11.80;99.90;;;;;;5043990;28;20049;-81
2022/11/09 08:40:32;;;;;;;10.13;9.13;;;11.80;99.90;;;;;;5040975;28;20055;-81
2022/11/09 08:43:01;;;;;;;10.20;8.57;;;11.80;99.90;;;;;;5038418;28;20132;-80
2022/11/09 08:45:31;;;;;;;11.20;9.00;;;11.70;99.90;;;;;;5061061;28;20071;-80
2022/11/09 08:47:58;;;;;;;9.05;8.38;;;11.70;99.90;;;;;;5048438;28;20047;-80
2022/11/09 08:50:27;;;;;;;9.35;7.15;;;11.70;99.90;;;;;;5035969;28;20036;-79
2022/11/09 08:52:54;;;;;;;9.00;6.13;;;11.60;99.90;;;;;;5045881;28;20521;-80
2022/11/09 08:55:21;;;;;;;11.10;7.22;;;11.70;99.90;;;;;;5057233;28;20044;-80
2022/11/09 08:57:48;;;;;;;7.93;7.15;;;11.70;99.90;;;;;;5061765;28;20032;-81
2022/11/09 09:00:15;;;;;;;7.55;6.10;;;11.80;99.90;;;;;;5029541;28;20539;-81
2022/11/09 09:02:41;;;;;;;8.05;6.32;;;11.80;99.90;;;;;;5058987;28;20072;-81
2022/11/09 09:05:08;;;;;;;6.40;5.97;;;11.80;99.90;;;;;;5042360;28;20378;-80
2022/11/09 09:07:35;;;;;;;7.22;6.60;;;11.90;99.90;;;;;;5061199;28;20051;-81
2022/11/09 09:10:03;;;;;;;10.98;7.07;;;12.00;99.90;;;;;;5043961;28;20213;-80
2022/11/09 09:12:30;;;;;;;8.93;7.05;;;12.00;99.90;;;;;;5044786;28;20376;-80
2022/11/09 09:14:57;;;;;;;8.13;6.88;;;12.00;99.90;;;;;;5044157;28;20055;-81
2022/11/09 09:17:24;;;;;;;6.95;6.15;;;12.10;99.90;;;;;;5042562;28;20040;-81
2022/11/09 09:19:50;;;;;;;6.88;6.28;;;12.00;99.90;;;;;;5064133;28;20087;-81
2022/11/09 09:22:18;;;;;;;8.90;6.00;;;12.00;99.90;;;;;;5059587;28;20032;-80
2022/11/09 09:24:45;;;;;;;6.38;5.75;;;12.00;99.90;;;;;;5063627;28;20040;-80
2022/11/09 09:27:12;;;;;;;7.53;5.93;;;12.10;99.90;;;;;;5042245;28;20120;-81
2022/11/09 09:29:38;;;;;;;7.65;5.78;;;12.00;99.90;;;;;;5060714;28;20666;-80
2022/11/09 09:32:05;;;;;;;9.40;8.50;;;11.90;99.90;;;;;;5043143;28;20298;-81
2022/11/09 09:34:32;;;;;;;8.68;7.88;;;11.80;99.90;;;;;;5056803;28;20144;-80
2022/11/09 09:36:58;;;;;;;8.35;7.60;;;11.70;99.90;;;;;;5060188;28;20064;-80
2022/11/09 09:39:25;;;;;;;8.15;7.40;;;11.70;99.90;;;;;;5040732;28;20039;-80
2022/11/09 09:41:58;;;;;;;7.72;6.95;;;11.70;99.90;;;;;;5027728;28;20043;-80
2022/11/09 09:44:33;;;;;;;8.25;7.55;;;11.70;99.90;;;;;;5041385;28;20123;-80
2022/11/09 09:47:14;;;;;;;;;;;11.70;99.90;;;;;;5041390;28;20533;-79
2022/11/09 09:49:48;;;;;;;6.43;6.03;;;11.80;99.90;;;;;;5039657;28;20007;-80
2022/11/09 09:52:21;;;;;;;7.22;6.38;;;12.00;99.90;;;;;;5038836;28;20040;-81
2022/11/09 09:55:04;;;;;;;6.80;6.22;;;12.20;99.90;;;;;;5042234;28;20068;-80
2022/11/09 09:57:33;;;;;;;8.18;7.47;;;12.50;99.90;;;;;;5045734;28;20054;-81
2022/11/09 10:00:15;;;;;;;8.18;7.50;;;12.60;99.90;;;;;;5047434;28;20250;-80
2022/11/09 10:02:42;;;;;;;8.52;7.82;;;12.80;99.90;;;;;;5046100;28;20047;-81
2022/11/09 10:05:13;;;;;;;8.52;7.95;;;13.10;99.90;;;;;;5044390;28;20478;-81
2022/11/09 10:08:05;;;;;;;10.07;9.13;;;13.30;99.90;;;;;;5046144;28;20041;-81
2022/11/09 10:10:53;;;;;;;11.75;10.73;;;13.30;99.90;;;;;;5041960;28;20044;-81
2022/11/09 10:13:47;;;;;;;11.18;10.23;;;13.40;99.90;;;;;;5042468;28;20045;-79
2022/11/09 10:16:31;;;;;;;11.52;10.55;;;13.40;99.90;;;;;;5053631;28;20048;-79
2022/11/09 10:19:47;;;;;;;12.23;11.27;;;13.50;99.90;;;;;;5037730;28;20051;-78
2022/11/09 10:22:29;;;;;;;12.18;11.20;;;13.30;99.90;;;;;;5027866;28;20102;-79
2022/11/09 10:25:08;;;;;;;13.35;12.20;;;13.30;99.90;;;;;;5054733;28;20040;-78
2022/11/09 10:28:13;;;;;;;12.63;11.73;;;13.30;99.90;;;;;;5034303;28;20064;-79
2022/11/09 10:30:40;;;;;;;11.98;10.93;;;13.30;99.90;;;;;;5041180;28;20037;-79
2022/11/09 10:33:10;;;;;;;11.68;10.98;;;13.50;99.90;;;;;;5055561;28;20044;-80
2022/11/09 10:35:59;;;;;;;13.23;12.38;;;13.50;99.90;;;;;;5038776;28;20048;-79
2022/11/09 10:38:43;;;;;;;13.65;12.57;;;13.70;99.90;;;;;;5041109;28;20068;-79
2022/11/09 10:41:38;;;;;;;16.83;15.80;;;13.80;99.90;;;;;;5041673;28;20124;-77
2022/11/09 10:44:24;;;;;;;21.50;20.13;;;14.00;99.90;;;;;;5041012;28;20063;-78
2022/11/09 10:47:13;;;;;;;24.42;23.13;;;14.30;99.90;;;;;;5052847;28;20287;-78
2022/11/09 10:50:06;;;;;;;26.10;24.60;;;14.60;99.90;;;;;;5061540;28;20048;-78
2022/11/09 10:52:51;;;;;;;23.85;22.65;;;14.50;99.90;;;;;;5055097;28;20048;-79
2022/11/09 10:55:48;;;;;;;23.80;22.50;;;14.40;99.90;;;;;;5045125;28;20079;-79
2022/11/09 10:58:44;;;;;;;23.02;21.52;;;14.40;99.90;;;;;;5061848;28;20055;-78
2022/11/09 11:01:35;;;;;;;;;;;14.60;99.90;;;;;;5061877;28;20048;-79
2022/11/09 11:04:24;;;;;;;24.77;23.48;;;14.90;99.90;;;;;;5057956;28;19931;-81
2022/11/09 11:07:14;;;;;;;25.52;23.83;;;15.00;99.90;;;;;;5046333;28;20562;-80
2022/11/09 11:10:25;;;;;;;20.65;19.55;;;15.00;99.90;;;;;;5057893;28;20059;-81
2022/11/09 11:13:20;;;;;;;19.48;18.48;;;14.70;99.90;;;;;;5037784;28;20050;-83
2022/11/09 11:16:27;;;;;;;22.88;21.67;;;14.70;99.90;;;;;;5058414;28;20040;-79
2022/11/09 11:19:45;;;;;;;23.60;22.08;;;14.60;99.90;;;;;;5058050;28;20367;-79
2022/11/09 11:22:30;;;;;;;22.92;21.67;;;14.40;99.90;;;;;;5042316;28;20094;-80
2022/11/09 11:25:23;;;;;;;23.50;22.10;;;14.40;99.90;;;;;;5055811;28;20246;-81
2022/11/09 11:28:20;;;;;;;23.67;22.23;;;14.40;99.90;;;;;;5053019;28;20793;-80
2022/11/09 11:31:13;;;;;;;22.35;20.83;;;14.60;99.90;;;;;;5057847;28;20089;-82
2022/11/09 11:34:00;;;;;;;21.52;20.15;;;14.70;99.90;;;;;;5039414;28;20043;-80
2022/11/09 11:36:59;;;;;;;21.45;20.30;;;14.90;99.90;;;;;;5059989;28;20044;-80
2022/11/09 11:40:06;;;;;;;23.58;22.17;;;15.10;99.90;;;;;;5061573;28;20563;-81
2022/11/09 11:43:01;;;;;;;25.60;23.55;;;14.90;99.90;;;;;;5059042;28;20044;-80
2022/11/09 11:46:09;;;;;;;24.55;23.10;;;14.60;99.90;;;;;;5059860;28;20052;-79
2022/11/09 11:48:54;;;;;;;24.02;22.65;;;14.30;99.90;;;;;;5036849;28;20079;-80
2022/11/09 11:51:56;;;;;;;25.13;23.10;;;14.10;99.90;;;;;;5054021;28;20090;-79
2022/11/09 11:54:57;;;;;;;23.77;22.38;;;14.10;99.90;;;;;;5055942;28;20053;-80
2022/11/09 11:58:06;;;;;;;23.45;22.00;;;14.10;99.90;;;;;;5038494;28;20185;-79
2022/11/09 12:01:11;;;;;;;27.15;24.95;;;14.10;99.90;;;;;;5064245;28;20094;-79
2022/11/09 12:04:10;;;;;;;25.75;24.05;;;14.00;99.90;;;;;;5047790;28;20182;-80
2022/11/09 12:07:06;;;;;;;23.02;21.45;;;14.10;99.90;;;;;;5051213;28;20060;-81
2022/11/09 12:10:13;;;;;;;24.30;22.77;;;14.30;99.90;;;;;;5060619;28;20145;-80
2022/11/09 12:12:58;;;;;;;23.42;21.67;;;14.40;99.90;;;;;;5052828;28;20581;-79
2022/11/09 12:15:58;;;;;;;24.58;23.00;;;14.50;99.90;;;;;;5048074;28;20114;-80
2022/11/09 12:19:12;;;;;;;24.25;22.67;;;14.50;99.90;;;;;;5062325;28;20055;-80
2022/11/09 12:22:11;;;;;;;23.65;22.05;;;14.50;99.90;;;;;;5059955;28;20043;-79
2022/11/09 12:25:12;;;;;;;25.13;23.40;;;14.40;99.90;;;;;;5047771;28;20094;-79
2022/11/09 12:28:24;;;;;;;23.25;21.73;;;14.30;99.90;;;;;;5060582;28;20044;-79
2022/11/09 12:31:23;;;;;;;23.55;22.15;;;14.30;99.90;;;;;;5057151;28;20089;-80
2022/11/09 12:34:22;;;;;;;24.23;22.55;;;14.30;99.90;;;;;;5048864;28;20045;-81
2022/11/09 12:37:19;;;;;;;24.67;22.95;;;14.10;99.90;;;;;;5059618;28;20059;-79
2022/11/09 12:40:21;;;;;;;22.77;21.27;;;14.10;99.90;;;;;;5060741;28;20055;-81
2022/11/09 12:43:18;;;;;;;23.65;22.15;;;14.10;99.90;;;;;;5056602;28;20118;-80
2022/11/09 12:46:05;;;;;;;22.05;20.63;;;13.90;99.90;;;;;;5032659;28;20044;-80
2022/11/09 12:48:52;;;;;;;21.45;20.23;;;13.90;99.90;;;;;;5046707;28;20493;-80
2022/11/09 12:51:37;;;;;;;23.17;21.65;;;13.80;99.90;;;;;;5055556;28;20174;-79
2022/11/09 12:54:23;;;;;;;23.48;21.92;;;13.80;99.90;;;;;;5052352;28;20563;-78
2022/11/09 12:57:12;;;;;;;22.92;21.30;;;13.70;99.90;;;;;;5060838;28;20508;-79
2022/11/09 12:59:59;;;;;;;22.35;21.13;;;13.80;99.90;;;;;;5053859;28;20060;-80
2022/11/09 13:02:56;;;;;;;22.65;21.33;;;13.90;99.90;;;;;;5044028;28;20056;-79
2022/11/09 13:05:43;;;;;;;22.33;21.02;;;13.90;99.90;;;;;;5057457;28;20194;-79